createdAt,value
2022-08-09T00:02:27.904Z,4.90
2022-08-09T00:05:03.507Z,3.63
2022-08-09T00:07:44.958Z,4.70
2022-08-09T00:10:17.922Z,4.75
2022-08-09T00:12:51.559Z,5.88
2022-08-09T00:15:35.512Z,5.22
2022-08-09T00:18:12.124Z,4.55
2022-08-09T00:20:41.466Z,3.95
2022-08-09T00:23:55.531Z,5.78
2022-08-09T00:26:05.134Z,4.32
2022-08-09T00:28:34.727Z,3.33
2022-08-09T00:31:02.106Z,6.53
2022-08-09T00:33:51.889Z,3.93
2022-08-09T00:36:19.380Z,6.13
2022-08-09T00:38:46.883Z,4.43
2022-08-09T00:44:10.935Z,3.47
2022-08-09T00:44:11.528Z,5.30
2022-08-09T00:46:56.927Z,4.20
2022-08-09T00:49:32.646Z,3.85
2022-08-09T00:52:05.408Z,4.55
2022-08-09T00:54:35.283Z,6.53
2022-08-09T00:57:10.302Z,3.75
2022-08-09T00:59:46.329Z,10.30
2022-08-09T01:02:18.519Z,5.90
2022-08-09T01:04:52.146Z,7.03
2022-08-09T01:07:38.040Z,5.60
2022-08-09T01:10:17.959Z,4.65
2022-08-09T01:12:55.526Z,5.57
2022-08-09T01:15:30.727Z,7.45
2022-08-09T01:18:03.499Z,5.82
2022-08-09T01:20:39.799Z,5.07
2022-08-09T01:24:02.382Z,5.20
2022-08-09T01:26:20.630Z,6.55
2022-08-09T01:28:55.346Z,5.20
2022-08-09T01:32:39.056Z,4.32
2022-08-09T01:34:19.618Z,8.00
2022-08-09T01:36:48.769Z,5.82
2022-08-09T01:39:17.643Z,8.07
2022-08-09T01:41:53.389Z,7.20
2022-08-09T01:44:27.767Z,5.68
2022-08-09T01:46:55.098Z,3.67
2022-08-09T01:49:24.101Z,5.18
2022-08-09T01:51:55.366Z,6.60
2022-08-09T01:54:25.811Z,6.40
2022-08-09T01:56:55.861Z,5.97
2022-08-09T01:59:24.153Z,6.78
2022-08-09T02:01:59.047Z,6.47
2022-08-09T02:04:31.580Z,5.03
2022-08-09T02:07:03.179Z,7.32
2022-08-09T02:09:42.307Z,5.03
2022-08-09T02:12:13.514Z,7.05
2022-08-09T02:14:52.206Z,6.47
2022-08-09T02:17:59.261Z,5.35
2022-08-09T02:20:12.111Z,6.75
2022-08-09T02:22:48.267Z,7.18
2022-08-09T02:25:20.485Z,6.85
2022-08-09T02:28:00.322Z,5.43
2022-08-09T02:30:37.341Z,4.00
2022-08-09T02:33:07.784Z,6.90
2022-08-09T02:36:01.228Z,7.85
2022-08-09T02:38:31.013Z,5.32
2022-08-09T02:41:04.881Z,5.93
2022-08-09T02:43:47.705Z,4.03
2022-08-09T02:46:27.703Z,6.47
2022-08-09T02:49:01.082Z,5.78
2022-08-09T02:51:40.101Z,6.68
2022-08-09T02:54:10.368Z,9.35
2022-08-09T02:56:42.713Z,4.10
2022-08-09T02:59:26.381Z,7.63
2022-08-09T03:02:07.067Z,8.30
2022-08-09T03:04:41.540Z,6.53
2022-08-09T03:07:12.515Z,8.70
2022-08-09T03:09:43.293Z,9.80
2022-08-09T03:12:13.519Z,5.35
2022-08-09T03:14:42.132Z,7.63
2022-08-09T03:17:16.361Z,6.30
2022-08-09T03:19:52.267Z,6.85
2022-08-09T03:22:30.445Z,8.70
2022-08-09T03:25:06.324Z,7.05
2022-08-09T03:27:48.853Z,7.70
2022-08-09T03:30:29.733Z,7.63
2022-08-09T03:33:12.996Z,9.70
2022-08-09T03:36:12.820Z,7.38
2022-08-09T03:38:41.809Z,6.95
2022-08-09T03:41:14.779Z,8.35
2022-08-09T03:44:02.765Z,7.47
2022-08-09T03:46:31.702Z,9.00
2022-08-09T03:49:04.242Z,9.02
2022-08-09T03:51:55.621Z,7.70
2022-08-09T03:54:31.368Z,8.23
2022-08-09T03:57:01.426Z,8.57
2022-08-09T03:59:53.568Z,12.45
2022-08-09T04:02:26.209Z,9.48
2022-08-09T04:04:57.257Z,9.20
2022-08-09T04:07:47.763Z,11.65
2022-08-09T04:10:14.777Z,8.35
2022-08-09T04:12:47.433Z,12.05
2022-08-09T04:15:39.083Z,9.90
2022-08-09T04:18:06.343Z,9.52
2022-08-09T04:20:34.137Z,7.75
2022-08-09T04:23:02.522Z,10.98
2022-08-09T04:25:37.244Z,8.35
2022-08-09T04:28:05.157Z,10.32
2022-08-09T04:30:32.374Z,10.68
2022-08-09T04:32:59.226Z,11.35
2022-08-09T04:35:29.304Z,8.98
2022-08-09T04:37:59.695Z,7.90
2022-08-09T04:40:36.564Z,7.00
2022-08-09T04:43:04.056Z,7.35
2022-08-09T04:45:36.049Z,7.57
2022-08-09T04:48:19.742Z,9.82
2022-08-09T04:50:50.081Z,10.70
2022-08-09T04:53:17.075Z,8.75
2022-08-09T04:55:58.093Z,9.02
2022-08-09T04:58:26.845Z,10.73
2022-08-09T05:00:54.383Z,10.70
2022-08-09T05:03:40.234Z,8.25
2022-08-09T05:06:09.490Z,11.17
2022-08-09T05:08:36.431Z,11.52
2022-08-09T05:11:07.467Z,9.02
2022-08-09T05:13:38.838Z,9.63
2022-08-09T05:16:06.931Z,8.55
2022-08-09T05:18:39.039Z,11.68
2022-08-09T05:21:24.201Z,10.23
2022-08-09T05:24:00.946Z,10.32
2022-08-09T05:26:36.565Z,11.27
2022-08-09T05:29:17.249Z,13.27
2022-08-09T05:31:50.456Z,10.82
2022-08-09T05:34:30.108Z,9.15
2022-08-09T05:37:01.660Z,13.88
2022-08-09T05:39:36.533Z,13.75
2022-08-09T05:42:17.661Z,11.55
2022-08-09T05:44:51.570Z,9.50
2022-08-09T05:47:19.129Z,8.40
2022-08-09T05:50:31.949Z,7.15
2022-08-09T05:52:33.410Z,8.13
2022-08-09T05:55:06.725Z,6.28
2022-08-09T05:57:55.671Z,6.07
2022-08-09T06:00:22.934Z,6.30
2022-08-09T06:02:54.293Z,5.55
2022-08-09T06:05:49.851Z,8.90
2022-08-09T06:08:11.546Z,7.78
2022-08-09T06:10:38.640Z,7.25
2022-08-09T06:13:12.148Z,7.68
2022-08-09T06:15:46.874Z,6.60
2022-08-09T06:18:15.774Z,7.03
2022-08-09T06:20:54.404Z,8.48
2022-08-09T06:23:24.319Z,6.22
2022-08-09T06:26:11.087Z,7.90
2022-08-09T06:28:39.944Z,7.82
2022-08-09T06:31:10.734Z,6.45
2022-08-09T06:33:40.636Z,6.10
2022-08-09T06:36:09.426Z,7.95
2022-08-09T06:38:38.803Z,6.88
2022-08-09T06:41:19.152Z,6.43
2022-08-09T06:43:48.213Z,5.45
2022-08-09T06:46:39.736Z,6.45
2022-08-09T06:49:03.348Z,7.67
2022-08-09T06:51:31.016Z,5.23
2022-08-09T06:54:01.056Z,6.70
2022-08-09T06:56:30.676Z,6.03
2022-08-09T07:00:52.583Z,6.68
2022-08-09T07:01:54.284Z,4.00
2022-08-09T07:04:27.184Z,4.90
2022-08-09T07:07:00.005Z,4.85
2022-08-09T07:09:57.412Z,4.40
2022-08-09T07:12:17.847Z,4.72
2022-08-09T07:14:51.094Z,4.13
2022-08-09T07:17:18.842Z,3.95
2022-08-09T07:19:48.170Z,5.73
2022-08-09T07:22:18.352Z,6.07
2022-08-09T07:24:49.606Z,5.20
2022-08-09T07:27:27.360Z,2.30
2022-08-09T07:30:04.118Z,2.97
2022-08-09T07:32:34.412Z,3.33
2022-08-09T07:35:08.168Z,4.95
2022-08-09T07:37:43.012Z,2.85
2022-08-09T07:40:17.183Z,3.97
2022-08-09T07:42:54.543Z,17.00
2022-08-09T07:45:37.795Z,10.10
2022-08-09T07:48:07.677Z,3.38
2022-08-09T07:50:53.314Z,3.92
2022-08-09T07:54:05.619Z,4.07
2022-08-09T07:56:26.598Z,8.65
2022-08-09T07:58:54.125Z,6.13
2022-08-09T08:01:22.300Z,5.60
2022-08-09T08:03:55.902Z,6.25
2022-08-09T08:06:32.030Z,2.50
2022-08-09T08:09:04.970Z,5.93
2022-08-09T08:12:10.954Z,2.65
2022-08-09T08:14:21.212Z,2.05
2022-08-09T08:17:07.641Z,3.85
2022-08-09T08:19:36.788Z,2.97
2022-08-09T08:22:03.996Z,3.30
2022-08-09T08:24:34.327Z,2.78
2022-08-09T08:27:17.053Z,3.13
2022-08-09T08:29:49.864Z,2.87
2022-08-09T08:32:28.816Z,2.72
2022-08-09T08:34:58.883Z,3.05
2022-08-09T08:37:41.164Z,2.15
2022-08-09T08:40:14.334Z,1.05
2022-08-09T08:42:46.974Z,3.63
2022-08-09T08:45:16.560Z,1.38
2022-08-09T08:47:45.854Z,1.40
2022-08-09T08:53:00.514Z,2.35
2022-08-09T08:55:28.374Z,2.70
2022-08-09T08:57:59.068Z,1.67
2022-08-09T09:00:27.751Z,1.20
2022-08-09T09:03:08.800Z,3.33
2022-08-09T09:06:03.082Z,1.30
2022-08-09T09:08:37.894Z,1.48
2022-08-09T09:11:08.197Z,0.80
2022-08-09T09:13:55.735Z,1.77
2022-08-09T09:16:30.171Z,1.85
2022-08-09T09:22:00.680Z,0.73
2022-08-09T09:24:32.540Z,1.27
2022-08-09T09:27:01.084Z,6.15
2022-08-09T09:32:20.400Z,1.63
2022-08-09T09:35:07.661Z,2.22
2022-08-09T09:37:40.504Z,0.93
2022-08-09T09:40:09.507Z,3.10
2022-08-09T09:42:37.096Z,1.67
2022-08-09T09:47:47.639Z,1.33
2022-08-09T09:50:39.711Z,2.90
2022-08-09T09:53:17.827Z,2.45
2022-08-09T09:56:03.887Z,1.67
2022-08-09T09:58:44.600Z,1.98
2022-08-09T10:01:31.229Z,1.92
2022-08-09T10:04:12.651Z,1.15
2022-08-09T10:09:22.204Z,1.40
2022-08-09T10:12:07.772Z,1.95
2022-08-09T10:14:39.721Z,2.80
2022-08-09T10:17:24.311Z,1.02
2022-08-09T10:20:06.294Z,1.37
2022-08-09T10:22:44.224Z,3.00
2022-08-09T10:25:14.544Z,1.58
2022-08-09T10:27:45.233Z,1.42
2022-08-09T10:34:08.869Z,1.15
2022-08-09T10:36:00.976Z,1.92
2022-08-09T10:38:54.444Z,2.95
2022-08-09T10:41:18.681Z,4.53
2022-08-09T10:43:58.550Z,1.52
2022-08-09T10:47:18.337Z,1.90
2022-08-09T10:50:03.253Z,1.60
2022-08-09T10:52:44.905Z,3.05
2022-08-09T10:55:26.291Z,1.50
2022-08-09T10:57:55.539Z,1.77
2022-08-09T11:00:50.968Z,2.80
2022-08-09T11:03:27.891Z,2.15
2022-08-09T11:06:22.748Z,5.35
2022-08-09T11:08:51.241Z,2.35
2022-08-09T11:11:22.857Z,1.85
2022-08-09T11:16:35.684Z,2.33
2022-08-09T11:19:07.904Z,1.63
2022-08-09T11:22:04.739Z,1.33
2022-08-09T11:25:04.471Z,2.80
2022-08-09T11:28:03.999Z,1.80
2022-08-09T11:30:34.426Z,5.97
2022-08-09T11:33:07.466Z,2.78
2022-08-09T11:35:49.136Z,1.42
2022-08-09T11:38:21.979Z,1.13
2022-08-09T11:40:56.546Z,1.70
2022-08-09T11:46:08.514Z,1.17
2022-08-09T11:48:47.981Z,1.20
2022-08-09T11:52:49.464Z,2.10
2022-08-09T11:54:13.898Z,2.20
2022-08-09T11:56:42.355Z,1.25
2022-08-09T11:59:30.271Z,0.90
2022-08-09T12:02:17.127Z,1.23
2022-08-09T12:04:46.923Z,2.58
2022-08-09T12:07:14.666Z,1.48
2022-08-09T12:09:41.556Z,1.27
2022-08-09T12:12:28.656Z,1.95
2022-08-09T12:17:44.476Z,1.45
2022-08-09T12:20:16.468Z,0.63
2022-08-09T12:22:52.944Z,2.53
2022-08-09T12:25:31.991Z,1.58
2022-08-09T12:29:14.548Z,5.18
2022-08-09T12:31:00.758Z,1.20
2022-08-09T12:33:51.195Z,1.35
2022-08-09T12:36:31.265Z,2.30
2022-08-09T12:39:00.132Z,3.42
2022-08-09T12:41:28.996Z,2.83
2022-08-09T12:44:06.945Z,2.90
2022-08-09T12:46:36.815Z,1.67
2022-08-09T12:49:04.291Z,2.70
2022-08-09T12:52:00.218Z,1.83
2022-08-09T12:54:18.548Z,0.95
2022-08-09T12:56:53.709Z,3.38
2022-08-09T12:59:23.391Z,1.85
2022-08-09T13:02:03.700Z,1.20
2022-08-09T13:04:38.051Z,2.45
2022-08-09T13:07:13.485Z,0.77
2022-08-09T13:09:43.296Z,0.93
2022-08-09T13:12:10.373Z,2.05
2022-08-09T13:14:44.163Z,1.88
2022-08-09T13:17:44.274Z,1.77
2022-08-09T13:20:07.777Z,2.75
2022-08-09T13:23:01.389Z,1.50
2022-08-09T13:25:41.819Z,3.10
2022-08-09T13:30:51.016Z,2.53
2022-08-09T13:33:52.169Z,2.03
2022-08-09T13:36:37.956Z,0.85
2022-08-09T13:41:19.030Z,3.83
2022-08-09T13:42:11.895Z,0.90
2022-08-09T13:44:58.042Z,0.95
2022-08-09T13:47:51.245Z,1.13
2022-08-09T13:50:39.610Z,3.05
2022-08-09T13:53:41.171Z,0.85
2022-08-09T13:56:29.255Z,5.28
2022-08-09T14:03:03.939Z,4.05
2022-08-09T14:06:01.247Z,1.88
2022-08-09T14:08:30.405Z,1.60
2022-08-09T14:10:57.835Z,0.95
2022-08-09T14:13:28.498Z,0.40
2022-08-09T14:16:16.942Z,0.75
2022-08-09T14:18:49.589Z,1.40
2022-08-09T14:21:22.703Z,1.73
2022-08-09T14:23:55.496Z,1.85
2022-08-09T14:26:32.865Z,1.95
2022-08-09T14:29:02.689Z,0.80
2022-08-09T14:31:36.416Z,0.82
2022-08-09T14:34:32.366Z,0.98
2022-08-09T14:37:06.306Z,10.32
2022-08-09T14:39:40.239Z,3.50
2022-08-09T14:42:28.950Z,3.20
2022-08-09T14:45:01.104Z,1.27
2022-08-09T14:47:44.940Z,4.28
2022-08-09T14:50:16.230Z,2.35
2022-08-09T14:52:47.737Z,1.15
2022-08-09T14:55:20.389Z,1.25
2022-08-09T14:57:48.994Z,0.93
2022-08-09T15:00:16.250Z,1.50
2022-08-09T15:02:43.041Z,1.50
2022-08-09T15:05:16.931Z,1.10
2022-08-09T15:07:45.558Z,0.82
2022-08-09T15:10:25.949Z,0.95
2022-08-09T15:12:52.855Z,4.32
2022-08-09T15:15:20.291Z,2.95
2022-08-09T15:17:51.688Z,2.53
2022-08-09T15:21:58.697Z,3.28
2022-08-09T15:25:55.860Z,0.60
2022-08-09T15:28:27.429Z,1.48
2022-08-09T15:31:03.154Z,2.25
2022-08-09T15:34:33.037Z,1.15
2022-08-09T15:36:28.651Z,1.38
2022-08-09T15:38:57.066Z,1.48
2022-08-09T15:41:31.405Z,2.70
2022-08-09T15:44:00.522Z,1.15
2022-08-09T15:46:33.098Z,0.30
2022-08-09T15:49:21.721Z,1.63
2022-08-09T15:52:03.288Z,1.40
2022-08-09T15:54:44.238Z,2.53
2022-08-09T15:57:15.305Z,0.57
2022-08-09T15:59:51.571Z,1.02
2022-08-09T16:02:18.955Z,2.05
2022-08-09T16:04:54.703Z,0.98
2022-08-09T16:07:21.507Z,0.50
2022-08-09T16:09:57.464Z,0.60
2022-08-09T16:12:34.170Z,1.85
2022-08-09T16:15:03.027Z,0.70
2022-08-09T16:17:29.785Z,2.30
2022-08-09T16:20:04.925Z,4.78
2022-08-09T16:22:36.433Z,3.15
2022-08-09T16:25:12.501Z,1.60
2022-08-09T16:27:43.885Z,2.40
2022-08-09T16:30:26.018Z,0.93
2022-08-09T16:32:56.596Z,1.75
2022-08-09T16:35:55.823Z,3.35
2022-08-09T16:38:12.458Z,0.90
2022-08-09T16:40:41.341Z,1.77
2022-08-09T16:43:09.742Z,1.13
2022-08-09T16:45:37.236Z,2.08
2022-08-09T16:48:39.724Z,1.65
2022-08-09T16:51:08.029Z,1.38
2022-08-09T16:53:35.994Z,2.25
2022-08-09T16:56:09.328Z,3.13
2022-08-09T16:58:42.527Z,1.52
2022-08-09T17:01:16.813Z,1.27
2022-08-09T17:03:46.988Z,0.65
2022-08-09T17:06:29.138Z,2.90
2022-08-09T17:09:11.841Z,4.30
2022-08-09T17:11:51.398Z,12.57
2022-08-09T17:14:28.162Z,1.17
2022-08-09T17:17:00.039Z,1.42
2022-08-09T17:19:47.484Z,4.35
2022-08-09T17:22:16.047Z,2.10
2022-08-09T17:24:55.515Z,4.95
2022-08-09T17:27:22.663Z,4.18
2022-08-09T17:29:51.998Z,7.10
2022-08-09T17:32:20.086Z,1.58
2022-08-09T17:35:03.996Z,1.98
2022-08-09T17:38:12.864Z,7.88
2022-08-09T17:40:22.000Z,4.28
2022-08-09T17:42:55.485Z,3.22
2022-08-09T17:46:01.851Z,1.23
2022-08-09T17:48:15.602Z,2.03
2022-08-09T17:50:55.889Z,2.53
2022-08-09T17:53:23.914Z,1.90
2022-08-09T17:55:57.010Z,2.97
2022-08-09T17:58:27.512Z,3.15
2022-08-09T18:00:56.333Z,0.93
2022-08-09T18:03:23.729Z,8.07
2022-08-09T18:05:53.224Z,2.38
2022-08-09T18:08:22.236Z,4.70
2022-08-09T18:11:00.935Z,5.97
2022-08-09T18:13:43.408Z,1.17
2022-08-09T18:16:30.496Z,0.93
2022-08-09T18:18:59.545Z,5.80
2022-08-09T18:21:31.780Z,1.25
2022-08-09T18:24:14.318Z,2.83
2022-08-09T18:26:46.901Z,1.52
2022-08-09T18:30:41.257Z,1.27
2022-08-09T18:32:04.927Z,1.90
2022-08-09T18:34:32.871Z,2.85
2022-08-09T18:36:59.847Z,0.83
2022-08-09T18:39:32.820Z,0.73
2022-08-09T18:42:00.226Z,2.15
2022-08-09T18:44:28.723Z,2.42
2022-08-09T18:47:04.927Z,1.05
2022-08-09T18:49:43.413Z,1.38
2022-08-09T18:52:15.874Z,2.33
2022-08-09T18:54:52.253Z,2.90
2022-08-09T18:57:22.196Z,2.72
2022-08-09T18:59:55.569Z,2.08
2022-08-09T19:02:32.404Z,0.77
2022-08-09T19:05:04.043Z,0.75
2022-08-09T19:07:42.208Z,2.78
2022-08-09T19:10:27.143Z,1.17
2022-08-09T19:12:59.373Z,1.90
2022-08-09T19:15:41.823Z,1.98
2022-08-09T19:18:17.205Z,2.88
2022-08-09T19:21:01.248Z,4.25
2022-08-09T19:24:36.259Z,1.85
2022-08-09T19:26:16.979Z,0.98
2022-08-09T19:28:48.794Z,0.75
2022-08-09T19:31:16.779Z,2.20
2022-08-09T19:33:43.728Z,2.33
2022-08-09T19:36:13.511Z,2.35
2022-08-09T19:38:41.040Z,4.95
2022-08-09T19:41:09.725Z,0.90
2022-08-09T19:44:01.756Z,3.38
2022-08-09T19:46:34.013Z,1.38
2022-08-09T19:51:55.302Z,2.13
2022-08-09T19:54:23.354Z,1.58
2022-08-09T19:56:52.533Z,1.63
2022-08-09T19:59:57.162Z,2.92
2022-08-09T20:02:17.353Z,1.23
2022-08-09T20:04:55.529Z,0.88
2022-08-09T20:07:24.662Z,2.20
2022-08-09T20:10:06.738Z,2.80
2022-08-09T20:12:45.933Z,3.10
2022-08-09T20:16:35.314Z,2.38
2022-08-09T20:18:00.515Z,1.60
2022-08-09T20:20:27.438Z,1.25
2022-08-09T20:22:56.631Z,1.17
2022-08-09T20:25:24.381Z,1.88
2022-08-09T20:27:52.385Z,0.95
2022-08-09T20:30:23.662Z,1.50
2022-08-09T20:32:52.419Z,4.75
2022-08-09T20:35:19.718Z,1.38
2022-08-09T20:38:20.334Z,1.02
2022-08-09T20:40:35.436Z,3.63
2022-08-09T20:43:24.219Z,1.83
2022-08-09T20:45:59.266Z,2.67
2022-08-09T20:48:37.134Z,1.20
2022-08-09T20:51:05.552Z,1.20
2022-08-09T20:53:36.704Z,2.65
2022-08-09T20:56:20.135Z,2.35
2022-08-09T20:58:49.239Z,3.63
2022-08-09T21:01:35.246Z,2.63
2022-08-09T21:05:49.398Z,2.00
2022-08-09T21:06:51.920Z,1.45
2022-08-09T21:09:32.584Z,3.28
2022-08-09T21:14:40.392Z,2.22
2022-08-09T21:18:21.120Z,1.05
2022-08-09T21:20:18.156Z,1.93
2022-08-09T21:22:46.886Z,3.30
2022-08-09T21:25:20.920Z,4.13
2022-08-09T21:27:50.849Z,1.38
2022-08-09T21:30:18.934Z,3.22
2022-08-09T21:32:49.789Z,1.00
2022-08-09T21:35:17.018Z,2.55
2022-08-09T21:37:58.561Z,1.08
2022-08-09T21:40:30.695Z,1.20
2022-08-09T21:43:01.182Z,0.90
2022-08-09T21:45:29.025Z,4.47
2022-08-09T21:47:57.420Z,1.13
2022-08-09T21:50:35.814Z,2.63
2022-08-09T21:53:19.884Z,1.38
2022-08-09T21:55:53.983Z,1.10
2022-08-09T21:58:29.109Z,1.20
2022-08-09T22:00:58.635Z,2.58
2022-08-09T22:03:26.327Z,1.10
2022-08-09T22:05:54.219Z,2.40
2022-08-09T22:08:24.461Z,2.00
2022-08-09T22:11:49.205Z,1.00
2022-08-09T22:13:43.293Z,1.20
2022-08-09T22:16:11.374Z,1.33
2022-08-09T22:18:52.813Z,4.32
2022-08-09T22:21:24.223Z,1.23
2022-08-09T22:24:00.201Z,1.48
2022-08-09T22:26:34.960Z,1.52
2022-08-09T22:29:08.647Z,2.78
2022-08-09T22:31:37.944Z,1.10
2022-08-09T22:34:09.713Z,2.08
2022-08-09T22:36:45.976Z,3.97
2022-08-09T22:39:47.139Z,0.82
2022-08-09T22:42:01.085Z,3.30
2022-08-09T22:44:29.821Z,2.33
2022-08-09T22:48:12.786Z,2.35
2022-08-09T22:49:47.925Z,2.88
2022-08-09T22:52:19.749Z,2.22
2022-08-09T22:54:47.097Z,1.70
2022-08-09T22:57:13.907Z,1.02
2022-08-09T22:59:56.229Z,1.27
2022-08-09T23:02:25.358Z,2.00
2022-08-09T23:04:54.831Z,1.95
2022-08-09T23:08:21.285Z,1.10
2022-08-09T23:10:12.155Z,4.25
2022-08-09T23:12:38.949Z,1.70
2022-08-09T23:15:07.832Z,1.70
2022-08-09T23:17:35.487Z,2.25
2022-08-09T23:20:07.889Z,1.83
2022-08-09T23:22:35.981Z,1.92
2022-08-09T23:25:03.218Z,1.85
2022-08-09T23:27:29.965Z,2.22
2022-08-09T23:29:57.328Z,1.90
2022-08-09T23:32:25.458Z,3.97
2022-08-09T23:34:52.266Z,1.95
2022-08-09T23:37:31.580Z,2.78
2022-08-09T23:42:27.099Z,4.45
2022-08-09T23:44:53.905Z,3.63
2022-08-09T23:47:20.731Z,2.92
2022-08-09T23:49:49.437Z,2.75
2022-08-09T23:52:16.236Z,2.38
2022-08-09T23:54:44.426Z,3.70
2022-08-09T23:57:12.851Z,2.42
2022-08-09T23:59:42.595Z,2.30
